createdAt,value
2022-08-12T00:02:02.589Z,26.62
2022-08-12T00:04:52.069Z,26.36
2022-08-12T00:07:38.369Z,26.64
2022-08-12T00:10:25.076Z,27.16
2022-08-12T00:13:12.065Z,27.94
2022-08-12T00:16:00.851Z,29.23
2022-08-12T00:18:46.921Z,28.95
2022-08-12T00:21:33.344Z,28.72
2022-08-12T00:24:22.372Z,28.25
2022-08-12T00:27:08.414Z,29.13
2022-08-12T00:29:54.235Z,28.15
2022-08-12T00:32:40.635Z,27.70
2022-08-12T00:35:36.571Z,28.01
2022-08-12T00:38:22.909Z,27.51
2022-08-12T00:41:08.582Z,27.32
2022-08-12T00:43:36.479Z,27.43
2022-08-12T00:46:22.584Z,26.88
2022-08-12T00:48:50.033Z,26.60
2022-08-12T00:51:17.330Z,26.95
2022-08-12T00:53:44.488Z,26.93
2022-08-12T00:56:11.897Z,27.23
2022-08-12T00:58:39.312Z,27.21
2022-08-12T01:01:07.806Z,27.08
2022-08-12T01:03:54.702Z,26.91
2022-08-12T01:06:40.901Z,26.76
2022-08-12T01:09:27.276Z,26.88
2022-08-12T01:11:54.743Z,26.85
2022-08-12T01:14:25.630Z,26.59
2022-08-12T01:16:53.033Z,27.11
2022-08-12T01:19:22.171Z,27.07
2022-08-12T01:22:09.346Z,27.33
2022-08-12T01:24:55.602Z,27.20
2022-08-12T01:27:23.484Z,27.44
2022-08-12T01:29:52.241Z,27.59
2022-08-12T01:32:20.007Z,27.32
2022-08-12T01:35:17.624Z,27.18
2022-08-12T01:37:49.305Z,27.72
2022-08-12T01:40:35.109Z,27.85
2022-08-12T01:43:08.861Z,27.88
2022-08-12T01:45:43.403Z,27.80
2022-08-12T01:48:15.914Z,27.77
2022-08-12T01:51:00.290Z,28.15
2022-08-12T01:53:50.745Z,28.31
2022-08-12T01:56:19.136Z,28.31
2022-08-12T01:59:05.101Z,28.55
2022-08-12T02:01:34.525Z,28.64
2022-08-12T02:04:39.406Z,29.24
2022-08-12T02:07:41.078Z,29.32
2022-08-12T02:10:50.290Z,29.28
2022-08-12T02:13:42.017Z,29.07
2022-08-12T02:16:11.874Z,29.22
2022-08-12T02:18:56.529Z,29.46
2022-08-12T02:21:34.803Z,29.61
2022-08-12T02:24:02.082Z,29.43
2022-08-12T02:26:30.833Z,29.29
2022-08-12T02:28:58.005Z,29.35
2022-08-12T02:31:25.176Z,29.19
2022-08-12T02:33:52.623Z,29.53
2022-08-12T02:36:19.796Z,29.41
2022-08-12T02:38:48.107Z,29.78
2022-08-12T02:41:16.983Z,29.44
2022-08-12T02:43:50.953Z,29.87
2022-08-12T02:46:19.600Z,30.07
2022-08-12T02:48:49.042Z,30.30
2022-08-12T02:51:19.400Z,30.03
2022-08-12T02:54:03.052Z,29.84
2022-08-12T02:56:34.030Z,30.72
2022-08-12T02:59:01.504Z,30.15
2022-08-12T03:01:32.691Z,30.33
2022-08-12T03:04:00.397Z,30.20
2022-08-12T03:06:30.515Z,30.50
2022-08-12T03:08:58.257Z,30.33
2022-08-12T03:11:42.962Z,30.86
2022-08-12T03:14:17.502Z,30.63
2022-08-12T03:16:47.726Z,30.29
2022-08-12T03:19:14.878Z,30.65
2022-08-12T03:21:54.729Z,31.17
2022-08-12T03:24:29.458Z,30.96
2022-08-12T03:27:00.279Z,31.38
2022-08-12T03:29:30.336Z,31.03
2022-08-12T03:32:00.685Z,30.94
2022-08-12T03:34:29.886Z,31.53
2022-08-12T03:36:57.085Z,31.05
2022-08-12T03:39:39.973Z,33.00
2022-08-12T03:42:11.574Z,32.12
2022-08-12T03:44:59.203Z,31.38
2022-08-12T03:47:56.176Z,31.72
2022-08-12T03:50:42.351Z,31.51
2022-08-12T03:53:28.336Z,31.60
2022-08-12T03:56:14.596Z,31.63
2022-08-12T03:59:00.531Z,31.06
2022-08-12T04:01:28.098Z,31.28
2022-08-12T04:03:55.815Z,30.96
2022-08-12T04:06:35.572Z,30.84
2022-08-12T04:09:14.668Z,30.93
2022-08-12T04:12:01.689Z,30.87
2022-08-12T04:14:29.109Z,31.05
2022-08-12T04:16:57.112Z,31.02
2022-08-12T04:19:25.151Z,30.50
2022-08-12T04:22:01.066Z,30.08
2022-08-12T04:24:36.790Z,30.66
2022-08-12T04:27:10.259Z,30.63
2022-08-12T04:30:31.589Z,30.53
2022-08-12T04:32:26.044Z,31.11
2022-08-12T04:34:53.712Z,31.40
2022-08-12T04:37:20.930Z,30.29
2022-08-12T04:39:48.780Z,29.45
2022-08-12T04:42:16.250Z,28.47
2022-08-12T04:44:44.438Z,27.81
2022-08-12T04:47:12.674Z,27.37
2022-08-12T04:49:40.802Z,27.08
2022-08-12T04:52:07.967Z,26.63
2022-08-12T04:54:35.510Z,26.64
2022-08-12T04:57:03.623Z,26.41
2022-08-12T04:59:48.332Z,25.80
2022-08-12T05:02:21.635Z,25.39
2022-08-12T05:04:51.253Z,25.39
2022-08-12T05:07:19.199Z,25.24
2022-08-12T05:09:58.829Z,24.62
2022-08-12T05:12:30.504Z,25.45
2022-08-12T05:14:58.874Z,24.86
2022-08-12T05:17:28.081Z,24.75
2022-08-12T05:19:57.318Z,23.86
2022-08-12T05:22:26.110Z,23.47
2022-08-12T05:24:53.535Z,24.34
2022-08-12T05:27:22.910Z,26.90
2022-08-12T05:30:06.534Z,27.24
2022-08-12T05:32:36.566Z,26.71
2022-08-12T05:35:06.871Z,27.68
2022-08-12T05:37:34.934Z,29.93
2022-08-12T05:40:08.245Z,29.56
2022-08-12T05:42:37.978Z,28.96
2022-08-12T05:45:06.166Z,29.95
2022-08-12T05:47:53.800Z,29.83
2022-08-12T05:50:22.078Z,30.74
2022-08-12T05:52:49.278Z,29.49
2022-08-12T05:55:20.427Z,31.91
2022-08-12T05:57:52.451Z,31.26
2022-08-12T06:00:20.551Z,30.68
2022-08-12T06:02:48.001Z,30.14
2022-08-12T06:05:15.179Z,31.26
2022-08-12T06:08:01.932Z,30.92
2022-08-12T06:10:33.382Z,30.74
2022-08-12T06:13:01.095Z,30.96
2022-08-12T06:15:28.410Z,30.18
2022-08-12T06:18:14.144Z,28.13
2022-08-12T06:20:43.906Z,29.68
2022-08-12T06:23:11.874Z,27.89
2022-08-12T06:25:39.192Z,28.60
2022-08-12T06:28:14.575Z,29.14
2022-08-12T06:30:42.398Z,27.77
2022-08-12T06:33:59.527Z,28.39
2022-08-12T06:35:59.070Z,28.20
2022-08-12T06:38:27.146Z,29.13
2022-08-12T06:41:13.845Z,28.11
2022-08-12T06:44:07.160Z,27.89
2022-08-12T06:46:29.210Z,28.47
2022-08-12T06:48:59.049Z,27.78
2022-08-12T06:51:27.031Z,27.21
2022-08-12T06:53:55.930Z,28.59
2022-08-12T06:56:39.835Z,28.42
2022-08-12T06:59:11.607Z,27.82
2022-08-12T07:01:38.994Z,27.97
2022-08-12T07:04:26.342Z,29.88
2022-08-12T07:06:55.824Z,27.88
2022-08-12T07:09:58.121Z,27.46
2022-08-12T07:12:17.123Z,26.53
2022-08-12T07:14:48.803Z,25.57
2022-08-12T07:17:16.389Z,25.58
2022-08-12T07:19:45.240Z,25.72
2022-08-12T07:22:14.156Z,26.71
2022-08-12T07:24:42.313Z,26.04
2022-08-12T07:27:09.606Z,26.91
2022-08-12T07:30:04.351Z,27.85
2022-08-12T07:32:25.512Z,26.47
2022-08-12T07:34:56.590Z,27.28
2022-08-12T07:37:24.004Z,28.81
2022-08-12T07:40:00.619Z,27.63
2022-08-12T07:42:29.518Z,26.94
2022-08-12T07:44:56.912Z,27.45
2022-08-12T07:47:24.475Z,26.83
2022-08-12T07:50:05.176Z,26.59
2022-08-12T07:52:38.333Z,26.90
2022-08-12T07:55:06.127Z,26.03
2022-08-12T07:57:33.321Z,26.51
2022-08-12T08:00:05.783Z,27.24
2022-08-12T08:02:35.834Z,27.83
2022-08-12T08:05:04.208Z,26.10
2022-08-12T08:07:31.431Z,25.95
2022-08-12T08:09:59.893Z,27.51
2022-08-12T08:12:47.255Z,27.63
2022-08-12T08:15:15.635Z,28.14
2022-08-12T08:17:57.959Z,27.08
2022-08-12T08:20:28.836Z,26.67
2022-08-12T08:22:56.988Z,25.52
2022-08-12T08:25:35.961Z,26.38
2022-08-12T08:28:06.078Z,27.57
2022-08-12T08:30:33.493Z,27.90
2022-08-12T08:33:00.702Z,27.52
2022-08-12T08:35:46.466Z,27.11
2022-08-12T08:38:24.531Z,27.37
2022-08-12T08:42:14.109Z,28.18
2022-08-12T08:44:06.773Z,26.71
2022-08-12T08:46:37.932Z,25.80
2022-08-12T08:49:05.634Z,27.10
2022-08-12T08:51:33.591Z,25.74
2022-08-12T08:54:00.716Z,25.41
2022-08-12T08:56:29.708Z,25.83
2022-08-12T08:58:57.764Z,25.07
2022-08-12T09:01:37.827Z,26.77
2022-08-12T09:05:09.308Z,25.93
2022-08-12T09:06:56.751Z,27.14
2022-08-12T09:09:28.321Z,26.65
2022-08-12T09:12:27.277Z,25.34
2022-08-12T09:14:55.045Z,25.43
2022-08-12T09:17:22.553Z,26.66
2022-08-12T09:22:37.705Z,24.20
2022-08-12T09:25:07.124Z,24.47
2022-08-12T09:28:15.869Z,23.52
2022-08-12T09:30:42.262Z,24.03
2022-08-12T09:33:18.291Z,24.62
2022-08-12T09:36:05.036Z,23.92
2022-08-12T09:38:33.720Z,23.06
2022-08-12T09:42:08.423Z,25.24
2022-08-12T09:44:38.106Z,24.76
2022-08-12T09:46:57.475Z,23.74
2022-08-12T09:49:27.308Z,23.28
2022-08-12T09:51:55.540Z,22.77
2022-08-12T09:54:34.887Z,24.07
2022-08-12T09:58:46.157Z,23.24
2022-08-12T10:00:15.966Z,24.11
2022-08-12T10:03:04.903Z,23.96
2022-08-12T10:06:20.312Z,24.14
2022-08-12T10:08:24.535Z,23.32
2022-08-12T10:11:19.985Z,22.71
2022-08-12T10:13:48.765Z,23.55
2022-08-12T10:16:22.355Z,23.30
2022-08-12T10:18:52.178Z,23.42
2022-08-12T10:21:23.973Z,23.90
2022-08-12T10:24:04.052Z,23.51
2022-08-12T10:26:50.587Z,23.37
2022-08-12T10:30:37.197Z,23.38
2022-08-12T10:32:44.401Z,23.79
2022-08-12T10:35:13.492Z,22.07
2022-08-12T10:38:36.464Z,21.67
2022-08-12T10:40:33.513Z,22.68
2022-08-12T10:43:20.187Z,22.53
2022-08-12T10:45:51.844Z,23.70
2022-08-12T10:48:27.179Z,24.02
2022-08-12T10:51:51.673Z,22.88
2022-08-12T10:54:00.595Z,23.46
2022-08-12T10:56:34.645Z,23.60
2022-08-12T10:59:10.560Z,22.33
2022-08-12T11:04:17.097Z,22.67
2022-08-12T11:04:44.879Z,22.23
2022-08-12T11:08:33.731Z,23.46
2022-08-12T11:10:02.420Z,23.65
2022-08-12T11:12:56.258Z,22.41
2022-08-12T11:15:32.914Z,22.97
2022-08-12T11:18:12.012Z,23.08
2022-08-12T11:20:45.426Z,22.50
2022-08-12T11:23:25.250Z,22.06
2022-08-12T11:26:05.358Z,22.46
2022-08-12T11:28:36.917Z,22.98
2022-08-12T11:31:05.085Z,23.14
2022-08-12T11:34:06.466Z,22.32
2022-08-12T11:36:21.955Z,22.47
2022-08-12T11:38:50.836Z,22.99
2022-08-12T11:41:31.450Z,22.42
2022-08-12T11:44:33.349Z,22.80
2022-08-12T11:46:51.329Z,22.40
2022-08-12T11:49:31.744Z,22.50
2022-08-12T11:52:03.002Z,21.83
2022-08-12T11:54:31.023Z,20.84
2022-08-12T11:57:02.313Z,20.79
2022-08-12T12:02:20.136Z,23.11
2022-08-12T12:04:52.469Z,22.95
2022-08-12T12:08:35.986Z,23.56
2022-08-12T12:10:14.788Z,22.81
2022-08-12T12:12:49.418Z,22.46
2022-08-12T12:15:25.114Z,21.95
2022-08-12T12:18:05.703Z,21.96
2022-08-12T12:20:34.315Z,21.98
2022-08-12T12:23:01.583Z,22.45
2022-08-12T12:25:59.627Z,22.72
2022-08-12T12:28:37.312Z,22.45
2022-08-12T12:31:04.260Z,22.01
2022-08-12T12:33:57.583Z,22.23
2022-08-12T12:36:24.135Z,24.45
2022-08-12T12:39:00.525Z,23.48
2022-08-12T12:42:41.670Z,24.39
2022-08-12T12:44:25.806Z,23.56
2022-08-12T12:47:03.088Z,22.03
2022-08-12T12:49:32.681Z,22.06
2022-08-12T12:52:19.430Z,21.63
2022-08-12T12:54:54.730Z,23.88
2022-08-12T12:57:36.276Z,24.38
2022-08-12T13:00:15.083Z,23.54
2022-08-12T13:02:53.706Z,22.75
2022-08-12T13:05:27.604Z,23.72
2022-08-12T13:08:01.002Z,23.56
2022-08-12T13:10:30.646Z,21.78
2022-08-12T13:12:59.155Z,20.20
2022-08-12T13:15:49.610Z,18.64
2022-08-12T13:18:28.642Z,18.58
2022-08-12T13:20:59.698Z,20.12
2022-08-12T13:23:37.196Z,21.17
2022-08-12T13:26:05.060Z,20.10
2022-08-12T13:28:32.772Z,19.82
2022-08-12T13:31:00.078Z,20.10
2022-08-12T13:33:28.553Z,20.76
2022-08-12T13:36:05.778Z,21.53
2022-08-12T13:38:36.100Z,21.06
2022-08-12T13:41:03.780Z,20.83
2022-08-12T13:43:41.266Z,21.33
2022-08-12T13:46:11.894Z,21.75
2022-08-12T13:48:45.282Z,20.64
2022-08-12T13:51:14.073Z,21.01
2022-08-12T13:53:59.041Z,21.73
2022-08-12T13:56:34.473Z,20.91
2022-08-12T13:59:03.404Z,22.03
2022-08-12T14:01:33.364Z,21.17
2022-08-12T14:04:04.462Z,22.73
2022-08-12T14:06:32.134Z,21.33
2022-08-12T14:09:00.639Z,21.16
2022-08-12T14:11:48.303Z,22.79
2022-08-12T14:14:27.685Z,22.34
2022-08-12T14:17:05.471Z,21.61
2022-08-12T14:19:37.997Z,22.33
2022-08-12T14:22:13.843Z,21.98
2022-08-12T14:24:42.726Z,21.05
2022-08-12T14:27:11.025Z,20.92
2022-08-12T14:30:05.164Z,20.05
2022-08-12T14:32:35.230Z,20.97
2022-08-12T14:35:05.189Z,21.56
2022-08-12T14:37:56.044Z,20.93
2022-08-12T14:40:27.391Z,20.64
2022-08-12T14:42:56.982Z,20.07
2022-08-12T14:45:37.139Z,19.92
2022-08-12T14:48:12.408Z,19.35
2022-08-12T14:51:02.603Z,18.86
2022-08-12T14:59:24.178Z,21.45
2022-08-12T15:01:54.546Z,21.06
2022-08-12T15:04:26.185Z,20.08
2022-08-12T15:06:55.123Z,20.30
2022-08-12T15:09:28.700Z,20.54
2022-08-12T15:12:03.416Z,20.02
2022-08-12T15:14:31.810Z,19.74
2022-08-12T15:17:00.534Z,19.75
2022-08-12T15:20:11.702Z,20.52
2022-08-12T15:22:36.935Z,20.62
2022-08-12T15:25:07.644Z,22.01
2022-08-12T15:28:04.523Z,20.78
2022-08-12T15:30:30.842Z,20.26
2022-08-12T15:32:58.981Z,20.13
2022-08-12T15:35:31.415Z,20.83
2022-08-12T15:38:19.432Z,20.56
2022-08-12T15:40:50.568Z,19.92
2022-08-12T15:43:27.452Z,20.11
2022-08-12T15:46:06.407Z,19.21
2022-08-12T15:48:34.209Z,20.64
2022-08-12T15:51:03.019Z,21.16
2022-08-12T15:53:53.282Z,20.91
2022-08-12T15:56:29.497Z,21.20
2022-08-12T15:58:59.238Z,20.67
2022-08-12T16:01:35.047Z,22.03
2022-08-12T16:04:05.413Z,21.22
2022-08-12T16:09:31.803Z,20.80
2022-08-12T16:12:12.058Z,20.37
2022-08-12T16:14:39.818Z,20.65
2022-08-12T16:17:08.965Z,20.57
2022-08-12T16:20:04.308Z,20.59
2022-08-12T16:22:26.585Z,20.19
2022-08-12T16:24:54.148Z,20.73
2022-08-12T16:27:25.633Z,20.22
2022-08-12T16:29:57.684Z,20.85
2022-08-12T16:32:31.929Z,21.09
2022-08-12T16:35:02.172Z,21.67
2022-08-12T16:38:25.240Z,21.21
2022-08-12T16:40:21.801Z,22.38
2022-08-12T16:42:54.094Z,21.68
2022-08-12T16:46:04.434Z,21.57
2022-08-12T16:48:23.982Z,21.45
2022-08-12T16:51:02.535Z,22.02
2022-08-12T16:53:30.861Z,22.49
2022-08-12T16:56:12.395Z,21.78
2022-08-12T16:58:40.713Z,22.74
2022-08-12T17:01:12.004Z,22.50
2022-08-12T17:03:50.282Z,22.69
2022-08-12T17:06:22.550Z,22.44
2022-08-12T17:09:02.926Z,21.50
2022-08-12T17:11:30.882Z,22.33
2022-08-12T17:13:59.537Z,23.24
2022-08-12T17:16:30.214Z,22.44
2022-08-12T17:18:59.686Z,22.17
2022-08-12T17:21:41.006Z,21.95
2022-08-12T17:24:21.434Z,22.46
2022-08-12T17:26:54.103Z,22.24
2022-08-12T17:29:24.330Z,22.22
2022-08-12T17:32:11.002Z,22.04
2022-08-12T17:34:57.383Z,22.07
2022-08-12T17:37:24.561Z,22.26
2022-08-12T17:40:15.931Z,22.41
2022-08-12T17:42:47.767Z,22.33
2022-08-12T17:45:19.590Z,22.24
2022-08-12T17:48:02.212Z,22.17
2022-08-12T17:50:33.708Z,22.34
2022-08-12T17:53:03.034Z,22.30
2022-08-12T17:55:43.619Z,22.55
2022-08-12T17:58:37.136Z,22.93
2022-08-12T18:01:06.154Z,22.75
2022-08-12T18:04:04.362Z,23.37
2022-08-12T18:06:28.191Z,22.81
2022-08-12T18:08:58.679Z,22.71
2022-08-12T18:12:04.261Z,22.67
2022-08-12T18:14:32.773Z,22.64
2022-08-12T18:17:08.113Z,22.51
2022-08-12T18:20:06.994Z,22.75
2022-08-12T18:22:30.863Z,22.49
2022-08-12T18:25:04.905Z,22.17
2022-08-12T18:27:43.595Z,22.54
2022-08-12T18:30:16.240Z,22.57
2022-08-12T18:32:58.854Z,22.36
2022-08-12T18:35:47.669Z,22.12
2022-08-12T18:38:19.476Z,22.70
2022-08-12T18:41:06.023Z,22.97
2022-08-12T18:43:38.895Z,22.72
2022-08-12T18:46:22.926Z,22.79
2022-08-12T18:48:56.554Z,22.74
2022-08-12T18:51:45.957Z,22.71
2022-08-12T18:54:11.323Z,23.33
2022-08-12T18:56:38.958Z,23.02
2022-08-12T18:59:06.478Z,23.33
2022-08-12T19:02:20.745Z,23.54
2022-08-12T19:04:29.249Z,23.47
2022-08-12T19:06:57.642Z,23.52
2022-08-12T19:09:57.992Z,23.31
2022-08-12T19:12:41.486Z,23.58
2022-08-12T19:15:09.381Z,23.64
2022-08-12T19:17:47.730Z,23.33
2022-08-12T19:20:24.531Z,23.20
2022-08-12T19:22:57.908Z,23.44
2022-08-12T19:26:00.017Z,23.90
2022-08-12T19:28:29.535Z,24.26
2022-08-12T19:31:55.516Z,24.17
2022-08-12T19:34:55.875Z,24.22
2022-08-12T19:37:09.668Z,24.11
2022-08-12T19:40:08.220Z,24.14
2022-08-12T19:42:27.780Z,24.13
2022-08-12T19:45:01.358Z,24.37
2022-08-12T19:47:38.825Z,24.47
2022-08-12T19:50:06.901Z,24.45
2022-08-12T19:52:40.770Z,24.46
2022-08-12T19:55:11.471Z,24.41
2022-08-12T19:58:02.258Z,24.18
2022-08-12T20:00:32.162Z,24.73
2022-08-12T20:03:04.376Z,24.36
2022-08-12T20:06:07.101Z,24.47
2022-08-12T20:08:32.904Z,24.55
2022-08-12T20:12:09.714Z,24.55
2022-08-12T20:13:57.997Z,24.45
2022-08-12T20:16:51.972Z,24.71
2022-08-12T20:19:23.396Z,24.84
2022-08-12T20:21:50.792Z,24.59
2022-08-12T20:24:19.130Z,24.85
2022-08-12T20:26:48.125Z,24.66
2022-08-12T20:29:16.577Z,24.80
2022-08-12T20:31:45.558Z,24.74
2022-08-12T20:34:13.051Z,24.83
2022-08-12T20:36:44.695Z,25.25
2022-08-12T20:39:34.115Z,25.04
2022-08-12T20:42:04.087Z,25.01
2022-08-12T20:44:40.179Z,24.94
2022-08-12T20:47:18.484Z,25.21
2022-08-12T20:49:55.480Z,25.37
2022-08-12T20:52:30.071Z,25.51
2022-08-12T20:54:58.142Z,25.09
2022-08-12T20:57:37.551Z,25.60
2022-08-12T21:00:16.132Z,25.52
2022-08-12T21:02:50.143Z,25.68
2022-08-12T21:06:12.706Z,25.58
2022-08-12T21:08:27.287Z,25.39
2022-08-12T21:10:58.853Z,25.63
2022-08-12T21:13:29.541Z,25.84
2022-08-12T21:16:10.136Z,25.68
2022-08-12T21:18:38.017Z,25.59
2022-08-12T21:21:05.590Z,25.44
2022-08-12T21:23:37.136Z,25.37
2022-08-12T21:26:16.252Z,25.21
2022-08-12T21:28:58.535Z,25.32
2022-08-12T21:32:36.603Z,25.54
2022-08-12T21:34:21.407Z,25.35
2022-08-12T21:36:53.417Z,25.52
2022-08-12T21:39:27.895Z,25.65
2022-08-12T21:42:06.645Z,25.45
2022-08-12T21:45:47.857Z,25.41
2022-08-12T21:47:23.044Z,25.54
2022-08-12T21:50:02.459Z,25.92
2022-08-12T21:52:40.562Z,26.15
2022-08-12T21:55:18.682Z,26.03
2022-08-12T21:57:48.236Z,26.65
2022-08-12T22:00:20.580Z,26.14
2022-08-12T22:03:07.830Z,25.91
2022-08-12T22:05:54.084Z,26.56
2022-08-12T22:08:26.150Z,25.74
2022-08-12T22:10:56.361Z,25.38
2022-08-12T22:14:07.804Z,25.43
2022-08-12T22:16:13.051Z,25.03
2022-08-12T22:18:40.959Z,25.30
2022-08-12T22:21:12.671Z,25.08
2022-08-12T22:24:04.267Z,25.15
2022-08-12T22:26:37.335Z,25.02
2022-08-12T22:29:27.522Z,25.14
2022-08-12T22:31:55.583Z,25.06
2022-08-12T22:34:29.440Z,25.05
2022-08-12T22:36:57.424Z,25.06
2022-08-12T22:39:26.432Z,25.21
2022-08-12T22:42:13.119Z,25.42
2022-08-12T22:45:06.152Z,25.48
2022-08-12T22:47:55.303Z,25.18
2022-08-12T22:50:27.221Z,25.11
2022-08-12T22:53:17.007Z,25.20
2022-08-12T22:56:00.286Z,25.38
2022-08-12T22:58:33.953Z,25.30
2022-08-12T23:01:01.911Z,25.22
2022-08-12T23:03:48.558Z,25.65
2022-08-12T23:06:24.229Z,25.77
2022-08-12T23:08:52.089Z,25.48
2022-08-12T23:11:23.732Z,25.71
2022-08-12T23:13:56.832Z,26.01
2022-08-12T23:16:33.077Z,26.53
2022-08-12T23:19:11.071Z,26.56
2022-08-12T23:22:05.205Z,26.62
2022-08-12T23:24:39.199Z,26.93
2022-08-12T23:27:50.792Z,27.28
2022-08-12T23:30:18.469Z,28.42
2022-08-12T23:32:54.063Z,28.23
2022-08-12T23:35:22.622Z,27.35
2022-08-12T23:37:53.726Z,27.10
2022-08-12T23:40:24.231Z,28.29
2022-08-12T23:42:54.225Z,27.62
2022-08-12T23:45:30.713Z,27.73
2022-08-12T23:47:59.858Z,26.92
2022-08-12T23:50:34.153Z,26.98
2022-08-12T23:53:05.339Z,27.20
2022-08-12T23:55:40.455Z,26.73
2022-08-12T23:58:20.749Z,27.17
